sensor_id;sensor_type;location;lat;lon;timestamp;pressure;altitude;pressure_sealevel;temperature;humidity
64340;BME280;63709;53.258;-8.814;2023-08-31T00:00:44;100692.63;;;17.31;100.00
64340;BME280;63709;53.258;-8.814;2023-08-31T00:03:12;100687.06;;;17.32;100.00
64340;BME280;63709;53.258;-8.814;2023-08-31T00:05:40;100678.59;;;17.27;100.00
64340;BME280;63709;53.258;-8.814;2023-08-31T00:08:06;100668.50;;;17.29;100.00
64340;BME280;63709;53.258;-8.814;2023-08-31T00:10:31;100668.13;;;17.24;100.00
64340;BME280;63709;53.258;-8.814;2023-08-31T00:12:56;100668.63;;;17.20;100.00
64340;BME280;63709;53.258;-8.814;2023-08-31T00:15:22;100671.50;;;17.18;100.00
64340;BME280;63709;53.258;-8.814;2023-08-31T00:17:48;100663.63;;;17.33;100.00
64340;BME280;63709;53.258;-8.814;2023-08-31T00:20:14;100655.09;;;17.11;100.00
64340;BME280;63709;53.258;-8.814;2023-08-31T00:22:39;100658.13;;;17.08;100.00
64340;BME280;63709;53.258;-8.814;2023-08-31T00:25:05;100652.06;;;17.06;100.00
64340;BME280;63709;53.258;-8.814;2023-08-31T00:27:33;100651.75;;;17.09;100.00
64340;BME280;63709;53.258;-8.814;2023-08-31T00:30:02;100648.91;;;17.19;100.00
64340;BME280;63709;53.258;-8.814;2023-08-31T00:32:27;100646.38;;;17.17;100.00
64340;BME280;63709;53.258;-8.814;2023-08-31T00:34:53;100641.97;;;17.16;100.00
64340;BME280;63709;53.258;-8.814;2023-08-31T00:37:18;100636.06;;;17.13;100.00
64340;BME280;63709;53.258;-8.814;2023-08-31T00:39:46;100644.66;;;17.16;100.00
64340;BME280;63709;53.258;-8.814;2023-08-31T00:42:12;100636.97;;;17.22;100.00
64340;BME280;63709;53.258;-8.814;2023-08-31T00:44:39;100635.41;;;17.11;100.00
64340;BME280;63709;53.258;-8.814;2023-08-31T00:47:04;100626.47;;;17.10;100.00
64340;BME280;63709;53.258;-8.814;2023-08-31T00:49:29;100614.34;;;17.14;100.00
64340;BME280;63709;53.258;-8.814;2023-08-31T00:51:55;100610.09;;;17.12;100.00
64340;BME280;63709;53.258;-8.814;2023-08-31T00:54:22;100604.72;;;17.12;100.00
64340;BME280;63709;53.258;-8.814;2023-08-31T00:56:51;100603.88;;;17.11;100.00
64340;BME280;63709;53.258;-8.814;2023-08-31T00:59:17;100594.13;;;17.18;100.00
64340;BME280;63709;53.258;-8.814;2023-08-31T01:02:27;100592.88;;;17.05;100.00
64340;BME280;63709;53.258;-8.814;2023-08-31T01:12:09;100593.19;;;17.02;100.00
64340;BME280;63709;53.258;-8.814;2023-08-31T01:14:41;100587.78;;;16.93;100.00
64340;BME280;63709;53.258;-8.814;2023-08-31T01:17:07;100590.56;;;17.10;100.00
64340;BME280;63709;53.258;-8.814;2023-08-31T01:22:07;100576.34;;;16.91;100.00
64340;BME280;63709;53.258;-8.814;2023-08-31T01:24:34;100577.69;;;16.96;100.00
64340;BME280;63709;53.258;-8.814;2023-08-31T01:27:00;100577.50;;;16.89;100.00
64340;BME280;63709;53.258;-8.814;2023-08-31T01:29:25;100574.63;;;16.90;100.00
64340;BME280;63709;53.258;-8.814;2023-08-31T01:31:51;100568.69;;;16.79;100.00
64340;BME280;63709;53.258;-8.814;2023-08-31T01:34:16;100570.41;;;16.88;100.00
64340;BME280;63709;53.258;-8.814;2023-08-31T01:36:42;100572.78;;;16.91;100.00
64340;BME280;63709;53.258;-8.814;2023-08-31T01:39:30;100567.41;;;16.91;100.00
64340;BME280;63709;53.258;-8.814;2023-08-31T01:41:59;100565.03;;;16.88;100.00
64340;BME280;63709;53.258;-8.814;2023-08-31T01:44:27;100570.22;;;16.81;100.00
64340;BME280;63709;53.258;-8.814;2023-08-31T01:46:57;100552.88;;;16.84;100.00
64340;BME280;63709;53.258;-8.814;2023-08-31T01:49:23;100552.69;;;16.77;100.00
64340;BME280;63709;53.258;-8.814;2023-08-31T01:51:48;100547.13;;;16.87;100.00
64340;BME280;63709;53.258;-8.814;2023-08-31T01:54:13;100534.16;;;16.82;100.00
64340;BME280;63709;53.258;-8.814;2023-08-31T01:56:39;100529.66;;;16.91;100.00
64340;BME280;63709;53.258;-8.814;2023-08-31T01:59:04;100523.75;;;16.87;100.00
64340;BME280;63709;53.258;-8.814;2023-08-31T02:01:32;100520.56;;;16.92;100.00
64340;BME280;63709;53.258;-8.814;2023-08-31T02:03:57;100515.16;;;16.92;100.00
64340;BME280;63709;53.258;-8.814;2023-08-31T02:06:22;100504.69;;;16.89;100.00
64340;BME280;63709;53.258;-8.814;2023-08-31T02:08:48;100512.28;;;16.85;100.00
64340;BME280;63709;53.258;-8.814;2023-08-31T02:11:13;100506.06;;;16.93;100.00
64340;BME280;63709;53.258;-8.814;2023-08-31T02:13:38;100502.00;;;16.89;100.00
64340;BME280;63709;53.258;-8.814;2023-08-31T02:16:04;100494.94;;;16.88;100.00
64340;BME280;63709;53.258;-8.814;2023-08-31T02:18:29;100493.22;;;16.87;100.00
64340;BME280;63709;53.258;-8.814;2023-08-31T02:20:54;100485.63;;;16.82;100.00
64340;BME280;63709;53.258;-8.814;2023-08-31T02:23:20;100483.63;;;16.84;100.00
64340;BME280;63709;53.258;-8.814;2023-08-31T02:25:45;100491.03;;;16.90;100.00
64340;BME280;63709;53.258;-8.814;2023-08-31T02:28:10;100493.09;;;16.97;100.00
64340;BME280;63709;53.258;-8.814;2023-08-31T02:30:36;100500.34;;;16.96;100.00
64340;BME280;63709;53.258;-8.814;2023-08-31T02:33:01;100500.03;;;17.07;100.00
64340;BME280;63709;53.258;-8.814;2023-08-31T02:35:27;100493.59;;;17.00;100.00
64340;BME280;63709;53.258;-8.814;2023-08-31T02:37:52;100497.00;;;17.02;100.00
64340;BME280;63709;53.258;-8.814;2023-08-31T02:40:17;100500.53;;;17.11;100.00
64340;BME280;63709;53.258;-8.814;2023-08-31T02:42:42;100498.69;;;17.11;100.00
64340;BME280;63709;53.258;-8.814;2023-08-31T02:45:08;100502.75;;;17.15;100.00
64340;BME280;63709;53.258;-8.814;2023-08-31T02:47:33;100476.41;;;17.01;100.00
64340;BME280;63709;53.258;-8.814;2023-08-31T02:49:58;100438.84;;;17.00;100.00
64340;BME280;63709;53.258;-8.814;2023-08-31T02:52:24;100414.19;;;16.86;100.00
64340;BME280;63709;53.258;-8.814;2023-08-31T02:54:50;100418.25;;;16.90;100.00
64340;BME280;63709;53.258;-8.814;2023-08-31T02:57:15;100415.75;;;16.97;100.00
64340;BME280;63709;53.258;-8.814;2023-08-31T02:59:44;100387.09;;;16.96;100.00
64340;BME280;63709;53.258;-8.814;2023-08-31T03:02:11;100377.81;;;16.74;100.00
64340;BME280;63709;53.258;-8.814;2023-08-31T03:04:36;100378.13;;;16.79;100.00
64340;BME280;63709;53.258;-8.814;2023-08-31T03:07:03;100386.09;;;16.89;100.00
64340;BME280;63709;53.258;-8.814;2023-08-31T03:09:28;100407.59;;;16.73;100.00
64340;BME280;63709;53.258;-8.814;2023-08-31T03:11:54;100434.28;;;16.84;100.00
64340;BME280;63709;53.258;-8.814;2023-08-31T03:14:19;100453.66;;;16.87;100.00
64340;BME280;63709;53.258;-8.814;2023-08-31T03:16:44;100459.19;;;16.94;100.00
64340;BME280;63709;53.258;-8.814;2023-08-31T03:19:10;100455.53;;;17.03;100.00
64340;BME280;63709;53.258;-8.814;2023-08-31T03:21:35;100442.56;;;17.15;100.00
64340;BME280;63709;53.258;-8.814;2023-08-31T03:24:01;100430.59;;;17.17;100.00
64340;BME280;63709;53.258;-8.814;2023-08-31T03:26:27;100423.84;;;17.30;100.00
64340;BME280;63709;53.258;-8.814;2023-08-31T03:28:52;100424.56;;;17.32;100.00
64340;BME280;63709;53.258;-8.814;2023-08-31T03:31:17;100432.47;;;17.17;100.00
64340;BME280;63709;53.258;-8.814;2023-08-31T03:33:43;100437.16;;;17.31;100.00
64340;BME280;63709;53.258;-8.814;2023-08-31T03:36:08;100444.59;;;17.29;100.00
64340;BME280;63709;53.258;-8.814;2023-08-31T03:38:33;100426.88;;;17.35;100.00
64340;BME280;63709;53.258;-8.814;2023-08-31T03:41:03;100424.19;;;17.27;100.00
64340;BME280;63709;53.258;-8.814;2023-08-31T03:43:28;100417.28;;;17.40;100.00
64340;BME280;63709;53.258;-8.814;2023-08-31T03:45:54;100402.97;;;17.40;100.00
64340;BME280;63709;53.258;-8.814;2023-08-31T03:48:21;100403.47;;;17.44;100.00
64340;BME280;63709;53.258;-8.814;2023-08-31T03:50:48;100399.75;;;17.36;100.00
64340;BME280;63709;53.258;-8.814;2023-08-31T03:53:13;100406.50;;;17.40;100.00
64340;BME280;63709;53.258;-8.814;2023-08-31T03:55:39;100398.22;;;17.58;100.00
64340;BME280;63709;53.258;-8.814;2023-08-31T03:58:04;100392.16;;;17.48;100.00
64340;BME280;63709;53.258;-8.814;2023-08-31T04:00:29;100398.56;;;17.47;100.00
64340;BME280;63709;53.258;-8.814;2023-08-31T04:02:54;100392.84;;;17.50;100.00
64340;BME280;63709;53.258;-8.814;2023-08-31T04:05:20;100389.47;;;17.40;100.00
64340;BME280;63709;53.258;-8.814;2023-08-31T04:07:45;100397.56;;;17.32;100.00
64340;BME280;63709;53.258;-8.814;2023-08-31T04:10:10;100395.38;;;17.35;100.00
64340;BME280;63709;53.258;-8.814;2023-08-31T04:12:35;100390.63;;;17.37;100.00
64340;BME280;63709;53.258;-8.814;2023-08-31T04:15:01;100391.16;;;17.33;100.00
64340;BME280;63709;53.258;-8.814;2023-08-31T04:17:26;100390.97;;;17.34;100.00
64340;BME280;63709;53.258;-8.814;2023-08-31T04:19:52;100391.16;;;17.33;100.00
64340;BME280;63709;53.258;-8.814;2023-08-31T04:22:17;100391.47;;;17.38;100.00
64340;BME280;63709;53.258;-8.814;2023-08-31T04:24:42;100391.50;;;17.30;100.00
64340;BME280;63709;53.258;-8.814;2023-08-31T04:27:08;100391.97;;;17.41;100.00
64340;BME280;63709;53.258;-8.814;2023-08-31T04:29:33;100398.91;;;17.36;100.00
64340;BME280;63709;53.258;-8.814;2023-08-31T04:31:58;100392.16;;;17.40;100.00
64340;BME280;63709;53.258;-8.814;2023-08-31T04:34:23;100396.34;;;17.42;100.00
64340;BME280;63709;53.258;-8.814;2023-08-31T04:36:49;100385.94;;;17.39;100.00
64340;BME280;63709;53.258;-8.814;2023-08-31T04:39:14;100391.81;;;17.43;100.00
64340;BME280;63709;53.258;-8.814;2023-08-31T04:41:40;100396.84;;;17.46;100.00
64340;BME280;63709;53.258;-8.814;2023-08-31T04:44:05;100396.03;;;17.46;100.00
64340;BME280;63709;53.258;-8.814;2023-08-31T04:46:30;100392.47;;;17.53;100.00
64340;BME280;63709;53.258;-8.814;2023-08-31T04:48:55;100402.59;;;17.51;100.00
64340;BME280;63709;53.258;-8.814;2023-08-31T04:51:36;100395.16;;;17.53;100.00
64340;BME280;63709;53.258;-8.814;2023-08-31T04:54:04;100396.53;;;17.65;100.00
64340;BME280;63709;53.258;-8.814;2023-08-31T04:56:30;100397.50;;;17.64;100.00
64340;BME280;63709;53.258;-8.814;2023-08-31T04:58:56;100396.16;;;17.69;100.00
64340;BME280;63709;53.258;-8.814;2023-08-31T05:01:22;100395.31;;;17.68;100.00
64340;BME280;63709;53.258;-8.814;2023-08-31T05:03:47;100396.66;;;17.72;100.00
64340;BME280;63709;53.258;-8.814;2023-08-31T05:06:12;100394.97;;;17.71;100.00
64340;BME280;63709;53.258;-8.814;2023-08-31T05:08:37;100405.78;;;17.79;100.00
64340;BME280;63709;53.258;-8.814;2023-08-31T05:11:03;100404.94;;;17.79;100.00
64340;BME280;63709;53.258;-8.814;2023-08-31T05:13:29;100404.94;;;17.79;100.00
64340;BME280;63709;53.258;-8.814;2023-08-31T05:15:54;100402.25;;;17.79;100.00
64340;BME280;63709;53.258;-8.814;2023-08-31T05:18:19;100394.31;;;17.85;100.00
64340;BME280;63709;53.258;-8.814;2023-08-31T05:20:45;100396.31;;;17.83;100.00
64340;BME280;63709;53.258;-8.814;2023-08-31T05:23:10;100401.91;;;17.82;100.00
64340;BME280;63709;53.258;-8.814;2023-08-31T05:25:36;100401.56;;;17.85;100.00
64340;BME280;63709;53.258;-8.814;2023-08-31T05:28:06;100399.88;;;17.84;100.00
64340;BME280;63709;53.258;-8.814;2023-08-31T05:30:32;100397.84;;;17.86;100.00
64340;BME280;63709;53.258;-8.814;2023-08-31T05:32:59;100399.19;;;17.82;100.00
64340;BME280;63709;53.258;-8.814;2023-08-31T05:35:24;100395.47;;;17.91;100.00
64340;BME280;63709;53.258;-8.814;2023-08-31T05:37:49;100389.56;;;17.96;100.00
64340;BME280;63709;53.258;-8.814;2023-08-31T05:40:14;100399.00;;;18.00;100.00
64340;BME280;63709;53.258;-8.814;2023-08-31T05:42:41;100395.38;;;18.16;100.00
64340;BME280;63709;53.258;-8.814;2023-08-31T05:45:07;100397.88;;;18.25;100.00
64340;BME280;63709;53.258;-8.814;2023-08-31T05:47:33;100396.38;;;18.23;100.00
64340;BME280;63709;53.258;-8.814;2023-08-31T05:50:00;100386.53;;;18.30;100.00
64340;BME280;63709;53.258;-8.814;2023-08-31T05:52:25;100387.22;;;18.32;100.00
64340;BME280;63709;53.258;-8.814;2023-08-31T05:54:51;100390.56;;;18.34;100.00
64340;BME280;63709;53.258;-8.814;2023-08-31T05:57:18;100390.53;;;18.42;100.00
64340;BME280;63709;53.258;-8.814;2023-08-31T05:59:43;100383.44;;;18.41;100.00
64340;BME280;63709;53.258;-8.814;2023-08-31T06:02:08;100385.97;;;18.43;100.00
64340;BME280;63709;53.258;-8.814;2023-08-31T06:04:34;100382.47;;;18.34;100.00
64340;BME280;63709;53.258;-8.814;2023-08-31T06:06:59;100378.03;;;18.41;100.00
64340;BME280;63709;53.258;-8.814;2023-08-31T06:09:25;100384.81;;;18.37;100.00
64340;BME280;63709;53.258;-8.814;2023-08-31T06:11:50;100386.19;;;18.33;100.00
64340;BME280;63709;53.258;-8.814;2023-08-31T06:14:15;100385.16;;;18.34;100.00
64340;BME280;63709;53.258;-8.814;2023-08-31T06:16:40;100379.28;;;18.30;100.00
64340;BME280;63709;53.258;-8.814;2023-08-31T06:19:06;100387.03;;;18.33;100.00
64340;BME280;63709;53.258;-8.814;2023-08-31T06:21:31;100391.59;;;18.33;100.00
64340;BME280;63709;53.258;-8.814;2023-08-31T06:23:56;100397.34;;;18.30;100.00
64340;BME280;63709;53.258;-8.814;2023-08-31T06:26:21;100401.44;;;18.26;100.00
64340;BME280;63709;53.258;-8.814;2023-08-31T06:28:47;100400.75;;;18.24;100.00
64340;BME280;63709;53.258;-8.814;2023-08-31T06:31:12;100401.06;;;18.29;100.00
64340;BME280;63709;53.258;-8.814;2023-08-31T06:33:37;100400.59;;;18.25;100.00
64340;BME280;63709;53.258;-8.814;2023-08-31T06:36:02;100406.47;;;18.29;100.00
64340;BME280;63709;53.258;-8.814;2023-08-31T06:38:28;100405.31;;;18.23;100.00
64340;BME280;63709;53.258;-8.814;2023-08-31T06:40:53;100401.13;;;18.21;100.00
64340;BME280;63709;53.258;-8.814;2023-08-31T06:43:23;100411.44;;;18.17;100.00
64340;BME280;63709;53.258;-8.814;2023-08-31T06:45:48;100409.38;;;18.19;100.00
64340;BME280;63709;53.258;-8.814;2023-08-31T06:48:14;100414.28;;;18.16;100.00
64340;BME280;63709;53.258;-8.814;2023-08-31T06:50:39;100416.34;;;18.13;100.00
64340;BME280;63709;53.258;-8.814;2023-08-31T06:53:04;100413.28;;;18.08;100.00
64340;BME280;63709;53.258;-8.814;2023-08-31T06:55:30;100418.53;;;18.10;100.00
64340;BME280;63709;53.258;-8.814;2023-08-31T06:57:57;100419.03;;;18.05;100.00
64340;BME280;63709;53.258;-8.814;2023-08-31T07:00:22;100414.81;;;18.11;100.00
64340;BME280;63709;53.258;-8.814;2023-08-31T07:02:49;100415.31;;;18.14;100.00
64340;BME280;63709;53.258;-8.814;2023-08-31T07:05:14;100420.38;;;18.09;100.00
64340;BME280;63709;53.258;-8.814;2023-08-31T07:07:39;100421.50;;;18.23;100.00
64340;BME280;63709;53.258;-8.814;2023-08-31T07:10:05;100423.38;;;18.23;100.00
64340;BME280;63709;53.258;-8.814;2023-08-31T07:12:31;100426.09;;;18.23;100.00
64340;BME280;63709;53.258;-8.814;2023-08-31T07:14:59;100424.69;;;18.35;100.00
64340;BME280;63709;53.258;-8.814;2023-08-31T07:17:24;100426.38;;;18.36;100.00
64340;BME280;63709;53.258;-8.814;2023-08-31T07:19:49;100426.00;;;18.39;100.00
64340;BME280;63709;53.258;-8.814;2023-08-31T07:22:14;100416.41;;;18.36;100.00
64340;BME280;63709;53.258;-8.814;2023-08-31T07:24:40;100427.72;;;18.40;100.00
64340;BME280;63709;53.258;-8.814;2023-08-31T07:27:05;100427.00;;;18.46;100.00
64340;BME280;63709;53.258;-8.814;2023-08-31T07:29:30;100420.34;;;18.57;100.00
64340;BME280;63709;53.258;-8.814;2023-08-31T07:31:56;100417.66;;;18.57;100.00
64340;BME280;63709;53.258;-8.814;2023-08-31T07:34:21;100415.09;;;18.63;100.00
64340;BME280;63709;53.258;-8.814;2023-08-31T07:36:47;100417.44;;;18.67;100.00
64340;BME280;63709;53.258;-8.814;2023-08-31T07:39:12;100418.44;;;18.74;100.00
64340;BME280;63709;53.258;-8.814;2023-08-31T07:41:37;100411.53;;;18.71;100.00
64340;BME280;63709;53.258;-8.814;2023-08-31T07:44:03;100418.09;;;18.69;100.00
64340;BME280;63709;53.258;-8.814;2023-08-31T07:46:28;100418.75;;;18.79;100.00
64340;BME280;63709;53.258;-8.814;2023-08-31T07:48:53;100411.94;;;18.83;100.00
64340;BME280;63709;53.258;-8.814;2023-08-31T07:51:20;100413.16;;;18.80;100.00
64340;BME280;63709;53.258;-8.814;2023-08-31T07:53:48;100424.16;;;18.79;100.00
64340;BME280;63709;53.258;-8.814;2023-08-31T07:56:13;100421.03;;;18.90;100.00
64340;BME280;63709;53.258;-8.814;2023-08-31T07:58:39;100422.34;;;18.94;100.00
64340;BME280;63709;53.258;-8.814;2023-08-31T08:01:04;100428.44;;;18.96;100.00
64340;BME280;63709;53.258;-8.814;2023-08-31T08:03:30;100433.19;;;18.94;100.00
64340;BME280;63709;53.258;-8.814;2023-08-31T08:05:55;100428.09;;;18.99;100.00
64340;BME280;63709;53.258;-8.814;2023-08-31T08:08:21;100421.59;;;19.08;100.00
64340;BME280;63709;53.258;-8.814;2023-08-31T08:10:47;100427.97;;;19.16;100.00
64340;BME280;63709;53.258;-8.814;2023-08-31T08:13:12;100426.63;;;19.12;100.00
64340;BME280;63709;53.258;-8.814;2023-08-31T08:15:37;100422.69;;;19.22;100.00
64340;BME280;63709;53.258;-8.814;2023-08-31T08:18:03;100429.53;;;19.33;100.00
64340;BME280;63709;53.258;-8.814;2023-08-31T08:20:28;100434.75;;;19.34;100.00
64340;BME280;63709;53.258;-8.814;2023-08-31T08:22:54;100427.22;;;19.45;100.00
64340;BME280;63709;53.258;-8.814;2023-08-31T08:25:19;100431.03;;;19.50;100.00
64340;BME280;63709;53.258;-8.814;2023-08-31T08:27:45;100428.47;;;19.57;100.00
64340;BME280;63709;53.258;-8.814;2023-08-31T08:30:11;100430.63;;;19.62;100.00
64340;BME280;63709;53.258;-8.814;2023-08-31T08:32:36;100434.53;;;19.59;100.00
64340;BME280;63709;53.258;-8.814;2023-08-31T08:35:01;100438.66;;;19.55;100.00
64340;BME280;63709;53.258;-8.814;2023-08-31T08:37:27;100442.97;;;19.64;100.00
64340;BME280;63709;53.258;-8.814;2023-08-31T08:39:54;100446.47;;;19.73;100.00
64340;BME280;63709;53.258;-8.814;2023-08-31T08:42:19;100448.91;;;19.82;100.00
64340;BME280;63709;53.258;-8.814;2023-08-31T08:44:48;100439.19;;;19.88;100.00
64340;BME280;63709;53.258;-8.814;2023-08-31T08:47:15;100441.94;;;20.03;100.00
64340;BME280;63709;53.258;-8.814;2023-08-31T08:49:41;100444.81;;;20.01;100.00
64340;BME280;63709;53.258;-8.814;2023-08-31T08:52:07;100442.00;;;20.10;100.00
64340;BME280;63709;53.258;-8.814;2023-08-31T08:54:33;100436.97;;;20.06;100.00
64340;BME280;63709;53.258;-8.814;2023-08-31T08:56:59;100447.72;;;20.15;100.00
64340;BME280;63709;53.258;-8.814;2023-08-31T08:59:26;100448.00;;;20.20;100.00
64340;BME280;63709;53.258;-8.814;2023-08-31T09:01:52;100442.19;;;20.23;100.00
64340;BME280;63709;53.258;-8.814;2023-08-31T09:04:17;100454.19;;;20.28;100.00
64340;BME280;63709;53.258;-8.814;2023-08-31T09:06:44;100449.94;;;20.41;100.00
64340;BME280;63709;53.258;-8.814;2023-08-31T09:09:09;100457.88;;;20.42;100.00
64340;BME280;63709;53.258;-8.814;2023-08-31T09:11:35;100452.81;;;20.39;100.00
64340;BME280;63709;53.258;-8.814;2023-08-31T09:14:12;100452.09;;;20.45;100.00
64340;BME280;63709;53.258;-8.814;2023-08-31T09:16:38;100455.47;;;20.47;100.00
64340;BME280;63709;53.258;-8.814;2023-08-31T09:19:06;100454.44;;;20.48;100.00
64340;BME280;63709;53.258;-8.814;2023-08-31T09:21:42;100460.16;;;20.53;100.00
64340;BME280;63709;53.258;-8.814;2023-08-31T09:24:07;100465.09;;;20.65;100.00
64340;BME280;63709;53.258;-8.814;2023-08-31T09:27:06;100472.69;;;20.69;100.00
64340;BME280;63709;53.258;-8.814;2023-08-31T09:29:25;100477.16;;;20.77;100.00
64340;BME280;63709;53.258;-8.814;2023-08-31T09:31:50;100472.34;;;20.79;100.00
64340;BME280;63709;53.258;-8.814;2023-08-31T09:34:16;100476.56;;;20.82;100.00
64340;BME280;63709;53.258;-8.814;2023-08-31T09:36:42;100469.16;;;20.90;100.00
64340;BME280;63709;53.258;-8.814;2023-08-31T09:39:07;100471.31;;;20.80;100.00
64340;BME280;63709;53.258;-8.814;2023-08-31T09:41:34;100472.19;;;20.81;100.00
64340;BME280;63709;53.258;-8.814;2023-08-31T09:44:14;100473.50;;;20.85;100.00
64340;BME280;63709;53.258;-8.814;2023-08-31T09:46:39;100482.16;;;20.80;100.00
64340;BME280;63709;53.258;-8.814;2023-08-31T09:49:05;100485.28;;;20.77;100.00
64340;BME280;63709;53.258;-8.814;2023-08-31T09:51:31;100483.88;;;20.81;100.00
64340;BME280;63709;53.258;-8.814;2023-08-31T09:53:57;100484.72;;;20.82;100.00
64340;BME280;63709;53.258;-8.814;2023-08-31T09:56:23;100473.19;;;20.79;100.00
64340;BME280;63709;53.258;-8.814;2023-08-31T09:58:49;100463.56;;;20.92;100.00
64340;BME280;63709;53.258;-8.814;2023-08-31T10:01:16;100468.66;;;21.01;100.00
64340;BME280;63709;53.258;-8.814;2023-08-31T10:03:41;100463.09;;;21.10;100.00
64340;BME280;63709;53.258;-8.814;2023-08-31T10:06:07;100464.94;;;21.02;100.00
64340;BME280;63709;53.258;-8.814;2023-08-31T10:08:33;100461.22;;;20.89;100.00
64340;BME280;63709;53.258;-8.814;2023-08-31T10:11:01;100451.75;;;20.99;100.00
64340;BME280;63709;53.258;-8.814;2023-08-31T10:13:29;100456.19;;;21.07;100.00
64340;BME280;63709;53.258;-8.814;2023-08-31T10:15:57;100464.50;;;21.06;100.00
64340;BME280;63709;53.258;-8.814;2023-08-31T10:18:22;100458.06;;;21.07;100.00
64340;BME280;63709;53.258;-8.814;2023-08-31T10:20:49;100467.34;;;20.97;100.00
64340;BME280;63709;53.258;-8.814;2023-08-31T10:23:14;100463.38;;;21.15;100.00
64340;BME280;63709;53.258;-8.814;2023-08-31T10:26:22;100462.59;;;21.21;100.00
64340;BME280;63709;53.258;-8.814;2023-08-31T10:28:38;100463.50;;;21.28;100.00
64340;BME280;63709;53.258;-8.814;2023-08-31T10:31:04;100468.25;;;21.41;100.00
64340;BME280;63709;53.258;-8.814;2023-08-31T10:35:58;100466.13;;;21.36;100.00
64340;BME280;63709;53.258;-8.814;2023-08-31T10:41:00;100464.78;;;21.47;100.00
64340;BME280;63709;53.258;-8.814;2023-08-31T10:43:25;100462.09;;;21.54;100.00
64340;BME280;63709;53.258;-8.814;2023-08-31T10:45:53;100463.00;;;21.39;100.00
64340;BME280;63709;53.258;-8.814;2023-08-31T10:48:19;100468.50;;;21.46;100.00
64340;BME280;63709;53.258;-8.814;2023-08-31T10:50:45;100477.09;;;21.49;100.00
64340;BME280;63709;53.258;-8.814;2023-08-31T10:53:12;100474.31;;;21.43;100.00
64340;BME280;63709;53.258;-8.814;2023-08-31T10:55:55;100465.84;;;21.53;100.00
64340;BME280;63709;53.258;-8.814;2023-08-31T10:58:21;100476.03;;;21.72;100.00
64340;BME280;63709;53.258;-8.814;2023-08-31T11:00:55;100476.50;;;21.75;100.00
64340;BME280;63709;53.258;-8.814;2023-08-31T11:03:23;100474.03;;;21.81;100.00
64340;BME280;63709;53.258;-8.814;2023-08-31T11:05:52;100468.19;;;21.84;100.00
64340;BME280;63709;53.258;-8.814;2023-08-31T11:08:24;100475.66;;;22.03;100.00
64340;BME280;63709;53.258;-8.814;2023-08-31T11:10:49;100478.19;;;22.05;100.00
64340;BME280;63709;53.258;-8.814;2023-08-31T11:13:22;100462.69;;;22.05;100.00
64340;BME280;63709;53.258;-8.814;2023-08-31T11:15:48;100472.75;;;22.05;100.00
64340;BME280;63709;53.258;-8.814;2023-08-31T11:18:13;100466.16;;;22.14;100.00
64340;BME280;63709;53.258;-8.814;2023-08-31T11:20:43;100469.03;;;22.40;100.00
64340;BME280;63709;53.258;-8.814;2023-08-31T11:23:08;100459.47;;;22.51;100.00
64340;BME280;63709;53.258;-8.814;2023-08-31T11:25:34;100459.03;;;22.54;100.00
64340;BME280;63709;53.258;-8.814;2023-08-31T11:28:00;100466.31;;;22.40;100.00
64340;BME280;63709;53.258;-8.814;2023-08-31T11:30:26;100463.28;;;22.63;100.00
64340;BME280;63709;53.258;-8.814;2023-08-31T11:32:52;100467.47;;;22.73;100.00
64340;BME280;63709;53.258;-8.814;2023-08-31T11:35:18;100464.47;;;22.54;100.00
64340;BME280;63709;53.258;-8.814;2023-08-31T11:37:44;100467.91;;;22.69;100.00
64340;BME280;63709;53.258;-8.814;2023-08-31T11:40:10;100459.75;;;22.76;100.00
64340;BME280;63709;53.258;-8.814;2023-08-31T11:42:36;100460.19;;;22.80;100.00
64340;BME280;63709;53.258;-8.814;2023-08-31T11:45:02;100453.31;;;22.90;100.00
64340;BME280;63709;53.258;-8.814;2023-08-31T11:47:30;100454.16;;;22.84;100.00
64340;BME280;63709;53.258;-8.814;2023-08-31T11:49:55;100449.16;;;22.94;100.00
64340;BME280;63709;53.258;-8.814;2023-08-31T11:52:21;100449.22;;;23.14;100.00
64340;BME280;63709;53.258;-8.814;2023-08-31T11:54:46;100449.41;;;23.13;100.00
64340;BME280;63709;53.258;-8.814;2023-08-31T11:57:17;100451.28;;;23.06;100.00
64340;BME280;63709;53.258;-8.814;2023-08-31T11:59:42;100463.19;;;22.91;100.00
64340;BME280;63709;53.258;-8.814;2023-08-31T12:02:08;100455.00;;;22.91;100.00
64340;BME280;63709;53.258;-8.814;2023-08-31T12:04:33;100469.47;;;22.99;100.00
64340;BME280;63709;53.258;-8.814;2023-08-31T12:07:06;100467.63;;;23.12;100.00
64340;BME280;63709;53.258;-8.814;2023-08-31T12:09:32;100461.03;;;22.87;100.00
64340;BME280;63709;53.258;-8.814;2023-08-31T12:11:57;100463.19;;;22.91;100.00
64340;BME280;63709;53.258;-8.814;2023-08-31T12:14:24;100467.53;;;22.86;100.00
64340;BME280;63709;53.258;-8.814;2023-08-31T12:16:50;100466.97;;;22.97;100.00
64340;BME280;63709;53.258;-8.814;2023-08-31T12:19:15;100464.06;;;23.05;100.00
64340;BME280;63709;53.258;-8.814;2023-08-31T12:21:42;100461.75;;;22.96;100.00
64340;BME280;63709;53.258;-8.814;2023-08-31T12:24:07;100469.34;;;23.20;100.00
64340;BME280;63709;53.258;-8.814;2023-08-31T12:26:33;100473.50;;;23.09;100.00
64340;BME280;63709;53.258;-8.814;2023-08-31T12:28:58;100484.44;;;23.29;100.00
64340;BME280;63709;53.258;-8.814;2023-08-31T12:31:23;100479.16;;;23.21;100.00
64340;BME280;63709;53.258;-8.814;2023-08-31T12:33:49;100478.38;;;23.47;100.00
64340;BME280;63709;53.258;-8.814;2023-08-31T12:36:14;100482.81;;;23.55;100.00
64340;BME280;63709;53.258;-8.814;2023-08-31T12:38:40;100483.63;;;23.49;100.00
64340;BME280;63709;53.258;-8.814;2023-08-31T12:41:05;100484.00;;;23.32;100.00